HUFP weather

Fort Portal Airport
Fort Portal, Kabarole District, Uganda

Public forecast

Using degrees Celsius for public forecast. Weather courtesy of forecast.io.

METAR (pilot weather report)

Report is more than 6 hours old.

Closest report is Kasese Airport, 32.7 nm (60.5 km) SSW. Retrieved 2016/02/22 12:00 UTC (3 years ago):

HUKS 221200Z 11009KT 9999 FEW024 FEW030CB SCT300 35/17 Q1010

TAF (pilot weather forecast)

Closest forecast is Entebbe International Airport, 137.6 nm (254.9 km) ESE. Retrieved 2019/02/19 12:00 UTC (6 hours ago):

TAF HUEN 191100Z 1912/2018 21010KT 9000 FEW025 FEW027CB FM 191700 22007KT 9999 FEW021 FEW023CB BECMG 1921/1924 35005KT FEW019 FEW021CB SCT120 TEMPO 2002/2006 VRB13KT 7000 TS SCT019 FEW021CB BKN110 BECMG 2007/2012 18012KT 9000 TS SCT021 FEW023CB BKN140 FM 201700 20009KT FEW020 FEW022CB